createdAt,value
2017-11-08T00:00:04.425Z,927.73
2017-11-08T00:00:16.269Z,927.7
2017-11-08T00:00:29.783Z,927.74
2017-11-08T00:00:43.237Z,927.79
2017-11-08T00:00:56.164Z,927.75
2017-11-08T00:01:08.533Z,927.77
2017-11-08T00:01:21.406Z,927.75
2017-11-08T00:01:33.793Z,927.74
2017-11-08T00:01:46.688Z,927.76
2017-11-08T00:01:59.634Z,927.74
2017-11-08T00:02:12.555Z,927.77
2017-11-08T00:02:26.034Z,927.74
2017-11-08T00:02:40.344Z,927.76
2017-11-08T00:02:53.296Z,927.74
2017-11-08T00:03:06.767Z,927.77
2017-11-08T00:03:19.688Z,927.76
2017-11-08T00:03:32.571Z,927.78
2017-11-08T00:03:46.048Z,927.84
2017-11-08T00:03:58.936Z,927.8
2017-11-08T00:04:11.853Z,927.79
2017-11-08T00:04:23.684Z,927.79
2017-11-08T00:04:36.578Z,927.84
2017-11-08T00:04:49.514Z,927.86
2017-11-08T00:05:02.443Z,927.82
2017-11-08T00:05:14.817Z,927.85
2017-11-08T00:05:28.256Z,927.8
2017-11-08T00:05:40.642Z,927.85
2017-11-08T00:05:54.125Z,927.82
2017-11-08T00:06:07.087Z,927.79
2017-11-08T00:06:19.510Z,927.78
2017-11-08T00:06:32.988Z,927.78
2017-11-08T00:06:44.278Z,927.8
2017-11-08T00:06:57.169Z,927.74
2017-11-08T00:07:09.530Z,927.82
2017-11-08T00:07:21.919Z,927.75
2017-11-08T00:07:34.851Z,927.73
2017-11-08T00:07:48.328Z,927.77
2017-11-08T00:08:00.704Z,927.76
2017-11-08T00:08:13.066Z,927.73
2017-11-08T00:08:26.402Z,927.72
2017-11-08T00:08:39.311Z,927.77
2017-11-08T00:08:53.471Z,927.78
2017-11-08T00:09:06.372Z,927.75
2017-11-08T00:09:19.844Z,927.69
2017-11-08T00:09:34.685Z,927.71
2017-11-08T00:09:47.794Z,927.71
2017-11-08T00:10:01.830Z,927.68
2017-11-08T00:10:15.548Z,927.68
2017-11-08T00:10:28.667Z,927.7
2017-11-08T00:10:42.342Z,927.72
2017-11-08T00:10:54.899Z,927.71
2017-11-08T00:11:08.123Z,927.75
2017-11-08T00:11:21.465Z,927.71
2017-11-08T00:11:34.643Z,927.69
2017-11-08T00:11:49.640Z,927.75
2017-11-08T00:12:00.920Z,927.7
2017-11-08T00:12:13.549Z,927.72
2017-11-08T00:12:27.125Z,927.71
2017-11-08T00:12:39.613Z,927.71
2017-11-08T00:12:52.923Z,927.69
2017-11-08T00:13:06.400Z,927.69
2017-11-08T00:13:19.922Z,927.7
2017-11-08T00:13:33.387Z,927.72
2017-11-08T00:13:47.051Z,927.72
2017-11-08T00:13:59.440Z,927.71
2017-11-08T00:14:11.280Z,927.7
2017-11-08T00:14:24.966Z,927.72
2017-11-08T00:14:37.400Z,927.72
2017-11-08T00:14:48.890Z,927.73
2017-11-08T00:15:02.089Z,927.7
2017-11-08T00:15:15.248Z,927.71
2017-11-08T00:15:28.380Z,927.68
2017-11-08T00:15:41.520Z,927.68
2017-11-08T00:15:54.888Z,927.71
2017-11-08T00:16:08.363Z,927.74
2017-11-08T00:16:21.322Z,927.72
2017-11-08T00:16:33.700Z,927.73
2017-11-08T00:16:47.206Z,927.68
2017-11-08T00:17:00.183Z,927.71
2017-11-08T00:17:13.658Z,927.77
2017-11-08T00:17:27.138Z,927.69
2017-11-08T00:17:39.473Z,927.7
2017-11-08T00:17:52.916Z,927.71
2017-11-08T00:18:05.786Z,927.73
2017-11-08T00:18:17.606Z,927.66
2017-11-08T00:18:31.090Z,927.72
2017-11-08T00:18:44.074Z,927.75
2017-11-08T00:18:57.625Z,927.74
2017-11-08T00:19:11.103Z,927.7
2017-11-08T00:19:24.522Z,927.76
2017-11-08T00:19:37.483Z,927.7
2017-11-08T00:19:50.980Z,927.77
2017-11-08T00:20:04.521Z,927.72
2017-11-08T00:20:18.036Z,927.76
2017-11-08T00:20:30.891Z,927.7
2017-11-08T00:20:42.719Z,927.72
2017-11-08T00:20:55.642Z,927.75
2017-11-08T00:21:08.560Z,927.75
2017-11-08T00:21:21.449Z,927.76
2017-11-08T00:21:34.882Z,927.7
2017-11-08T00:21:47.283Z,927.72
2017-11-08T00:21:59.679Z,927.8
2017-11-08T00:22:12.077Z,927.78
2017-11-08T00:22:24.454Z,927.78
2017-11-08T00:22:36.366Z,927.78
2017-11-08T00:22:49.298Z,927.74
2017-11-08T00:23:02.201Z,927.74
2017-11-08T00:23:15.715Z,927.78
2017-11-08T00:23:28.620Z,927.78
2017-11-08T00:23:41.518Z,927.76
2017-11-08T00:23:55.012Z,927.75
2017-11-08T00:24:08.437Z,927.76
2017-11-08T00:24:21.358Z,927.78
2017-11-08T00:24:33.200Z,927.78
2017-11-08T00:24:45.579Z,927.78
2017-11-08T00:24:58.496Z,927.76
2017-11-08T00:25:11.998Z,927.75
2017-11-08T00:25:24.950Z,927.76
2017-11-08T00:25:37.885Z,927.72
2017-11-08T00:25:50.236Z,927.76
2017-11-08T00:26:03.177Z,927.76
2017-11-08T00:26:16.105Z,927.75
2017-11-08T00:26:29.066Z,927.77
2017-11-08T00:26:41.900Z,927.7
2017-11-08T00:26:55.393Z,927.79
2017-11-08T00:27:08.848Z,927.77
2017-11-08T00:27:22.326Z,927.81
2017-11-08T00:27:34.737Z,927.82
2017-11-08T00:27:47.395Z,927.8
2017-11-08T00:27:59.759Z,927.79
2017-11-08T00:28:12.676Z,927.79
2017-11-08T00:28:25.120Z,927.75
2017-11-08T00:28:38.061Z,927.79
2017-11-08T00:28:49.361Z,927.81
2017-11-08T00:29:02.812Z,927.79
2017-11-08T00:29:14.657Z,927.81
2017-11-08T00:29:27.496Z,927.83
2017-11-08T00:29:40.399Z,927.82
2017-11-08T00:29:51.695Z,927.76
2017-11-08T00:30:04.563Z,927.81
2017-11-08T00:30:16.956Z,927.82
2017-11-08T00:30:28.746Z,927.8
2017-11-08T00:30:41.736Z,927.85
2017-11-08T00:30:53.571Z,927.82
2017-11-08T00:31:07.039Z,927.83
2017-11-08T00:31:19.452Z,927.82
2017-11-08T00:31:31.810Z,927.85
2017-11-08T00:31:45.235Z,927.83
2017-11-08T00:31:58.687Z,927.81
2017-11-08T00:32:11.638Z,927.81
2017-11-08T00:32:25.084Z,927.83
2017-11-08T00:32:39.245Z,927.86
2017-11-08T00:32:52.269Z,927.85
2017-11-08T00:33:05.727Z,927.84
2017-11-08T00:33:19.160Z,927.87
2017-11-08T00:33:32.077Z,927.86
2017-11-08T00:33:44.480Z,927.85
2017-11-08T00:33:56.852Z,927.88
2017-11-08T00:34:09.806Z,927.88
2017-11-08T00:34:23.234Z,927.9
2017-11-08T00:34:36.100Z,927.92
2017-11-08T00:34:48.513Z,927.87
2017-11-08T00:35:01.431Z,927.9
2017-11-08T00:35:14.899Z,927.86
2017-11-08T00:35:28.436Z,927.89
2017-11-08T00:35:41.389Z,927.85
2017-11-08T00:35:54.302Z,927.84
2017-11-08T00:36:07.778Z,927.87
2017-11-08T00:36:20.157Z,927.88
2017-11-08T00:36:33.589Z,927.87
2017-11-08T00:36:45.412Z,927.89
2017-11-08T00:36:58.899Z,927.89
2017-11-08T00:37:11.300Z,927.9
2017-11-08T00:37:24.221Z,927.85
2017-11-08T00:37:37.135Z,927.82
2017-11-08T00:37:50.032Z,927.87
2017-11-08T00:38:02.444Z,927.87
2017-11-08T00:38:15.891Z,927.87
2017-11-08T00:38:28.828Z,927.85
2017-11-08T00:38:42.253Z,927.84
2017-11-08T00:38:55.706Z,927.83
2017-11-08T00:39:09.142Z,927.89
2017-11-08T00:39:22.622Z,927.83
2017-11-08T00:39:34.997Z,927.8
2017-11-08T00:39:47.422Z,927.86
2017-11-08T00:40:00.853Z,927.86
2017-11-08T00:40:13.222Z,927.82
2017-11-08T00:40:26.667Z,927.81
2017-11-08T00:40:39.055Z,927.84
2017-11-08T00:40:52.007Z,927.81
2017-11-08T00:41:04.380Z,927.94
2017-11-08T00:41:17.267Z,927.89
2017-11-08T00:41:30.741Z,927.84
2017-11-08T00:41:43.670Z,927.95
2017-11-08T00:41:56.049Z,927.88
2017-11-08T00:42:08.952Z,927.88
2017-11-08T00:42:22.439Z,927.83
2017-11-08T00:42:35.370Z,927.88
2017-11-08T00:42:47.896Z,927.84
2017-11-08T00:43:00.288Z,927.89
2017-11-08T00:43:12.674Z,927.86
2017-11-08T00:43:26.188Z,927.8
2017-11-08T00:43:42.703Z,927.85
2017-11-08T00:43:56.211Z,927.84
2017-11-08T00:44:08.614Z,927.83
2017-11-08T00:44:22.050Z,927.87
2017-11-08T00:44:35.504Z,927.84
2017-11-08T00:44:49.033Z,927.86
2017-11-08T00:45:01.940Z,927.86
2017-11-08T00:45:14.891Z,927.76
2017-11-08T00:45:28.383Z,927.83
2017-11-08T00:45:41.328Z,927.88
2017-11-08T00:45:54.258Z,927.85
2017-11-08T00:46:07.178Z,927.84
2017-11-08T00:46:19.550Z,927.85
2017-11-08T00:46:32.470Z,927.82
2017-11-08T00:46:45.417Z,927.82
2017-11-08T00:46:58.892Z,927.87
2017-11-08T00:47:12.322Z,927.84
2017-11-08T00:47:25.235Z,927.84
2017-11-08T00:47:38.138Z,927.79
2017-11-08T00:47:51.864Z,927.77
2017-11-08T00:48:04.823Z,927.83
2017-11-08T00:48:18.274Z,927.72
2017-11-08T00:48:30.667Z,927.8
2017-11-08T00:48:43.631Z,927.77
2017-11-08T00:48:57.120Z,927.81
2017-11-08T00:49:09.520Z,927.79
2017-11-08T00:49:21.340Z,927.81
2017-11-08T00:49:34.239Z,927.8
2017-11-08T00:49:46.660Z,927.79
2017-11-08T00:50:00.107Z,927.78
2017-11-08T00:50:12.991Z,927.76
2017-11-08T00:50:25.395Z,927.8
2017-11-08T00:50:38.339Z,927.79
2017-11-08T00:50:50.207Z,927.79
2017-11-08T00:51:02.610Z,927.79
2017-11-08T00:51:15.006Z,927.78
2017-11-08T00:51:28.463Z,927.84
2017-11-08T00:51:40.865Z,927.82
2017-11-08T00:51:53.291Z,927.82
2017-11-08T00:52:05.669Z,927.77
2017-11-08T00:52:18.506Z,927.82
2017-11-08T00:52:32.010Z,927.79
2017-11-08T00:52:45.005Z,927.86
2017-11-08T00:52:58.580Z,927.87
2017-11-08T00:53:11.542Z,927.83
2017-11-08T00:53:25.059Z,927.83
2017-11-08T00:53:37.480Z,927.86
2017-11-08T00:53:50.434Z,927.85
2017-11-08T00:54:03.899Z,927.83
2017-11-08T00:54:17.338Z,927.85
2017-11-08T00:54:29.188Z,927.83
2017-11-08T00:54:41.575Z,927.85
2017-11-08T00:54:54.442Z,927.83
2017-11-08T00:55:07.327Z,927.87
2017-11-08T00:55:19.159Z,927.82
2017-11-08T00:55:32.610Z,927.87
2017-11-08T00:55:45.526Z,927.87
2017-11-08T00:55:58.422Z,927.88
2017-11-08T00:56:11.380Z,927.84
2017-11-08T00:56:24.842Z,927.85
2017-11-08T00:56:38.357Z,927.86
2017-11-08T00:56:51.820Z,927.8
2017-11-08T00:57:05.305Z,927.89
2017-11-08T00:57:18.241Z,927.83
2017-11-08T00:57:31.735Z,927.83
2017-11-08T00:57:44.686Z,927.85
2017-11-08T00:57:56.721Z,927.83
2017-11-08T00:58:09.630Z,927.86
2017-11-08T00:58:23.108Z,927.85
2017-11-08T00:58:36.584Z,927.86
2017-11-08T00:58:49.022Z,927.79
2017-11-08T00:59:01.446Z,927.85
2017-11-08T00:59:14.940Z,927.8
2017-11-08T00:59:27.788Z,927.81
2017-11-08T00:59:40.143Z,927.78
2017-11-08T00:59:53.597Z,927.75
2017-11-08T01:00:07.060Z,927.81
2017-11-08T01:00:19.940Z,927.85
2017-11-08T01:00:32.819Z,927.78
2017-11-08T01:00:46.328Z,927.75
2017-11-08T01:00:59.792Z,927.7
2017-11-08T01:01:12.191Z,927.73
2017-11-08T01:01:25.138Z,927.71
2017-11-08T01:01:38.049Z,927.71
2017-11-08T01:01:51.032Z,927.67
2017-11-08T01:02:03.968Z,927.71
2017-11-08T01:02:16.876Z,927.71
2017-11-08T01:02:30.392Z,927.68
2017-11-08T01:02:43.867Z,927.68
2017-11-08T01:02:58.198Z,927.63
2017-11-08T01:03:10.608Z,927.62
2017-11-08T01:03:23.009Z,927.66
2017-11-08T01:03:35.990Z,927.63
2017-11-08T01:03:49.409Z,927.57
2017-11-08T01:04:01.773Z,927.59
2017-11-08T01:04:15.271Z,927.6
2017-11-08T01:04:27.671Z,927.63
2017-11-08T01:04:40.081Z,927.59
2017-11-08T01:04:53.041Z,927.6
2017-11-08T01:05:05.392Z,927.58
2017-11-08T01:05:17.765Z,927.57
2017-11-08T01:05:31.194Z,927.62
2017-11-08T01:05:44.680Z,927.62
2017-11-08T01:05:56.528Z,927.61
2017-11-08T01:06:09.980Z,927.55
2017-11-08T01:06:22.378Z,927.57
2017-11-08T01:06:35.866Z,927.57
2017-11-08T01:06:49.372Z,927.58
2017-11-08T01:07:02.323Z,927.61
2017-11-08T01:07:15.842Z,927.61
2017-11-08T01:07:29.307Z,927.62
2017-11-08T01:07:42.729Z,927.55
2017-11-08T01:07:55.096Z,927.61
2017-11-08T01:08:08.023Z,927.59
2017-11-08T01:08:20.965Z,927.57
2017-11-08T01:08:33.945Z,927.59
2017-11-08T01:08:46.840Z,927.56
2017-11-08T01:08:59.802Z,927.6
2017-11-08T01:09:12.739Z,927.58
2017-11-08T01:09:25.176Z,927.61
2017-11-08T01:09:38.669Z,927.59
2017-11-08T01:09:51.023Z,927.54
2017-11-08T01:10:04.694Z,927.55
2017-11-08T01:10:17.555Z,927.55
2017-11-08T01:10:31.008Z,927.59
2017-11-08T01:10:43.957Z,927.59
2017-11-08T01:10:56.906Z,927.61
2017-11-08T01:11:09.809Z,927.59
2017-11-08T01:11:23.211Z,927.59
2017-11-08T01:11:36.110Z,927.55
2017-11-08T01:11:49.627Z,927.6
2017-11-08T01:12:02.550Z,927.64
2017-11-08T01:12:15.485Z,927.58
2017-11-08T01:12:28.374Z,927.6
2017-11-08T01:12:40.757Z,927.6
2017-11-08T01:12:54.200Z,927.63
2017-11-08T01:13:06.705Z,927.57
2017-11-08T01:13:19.642Z,927.6
2017-11-08T01:13:33.117Z,927.59
2017-11-08T01:13:45.537Z,927.61
2017-11-08T01:13:59.000Z,927.61
2017-11-08T01:14:11.327Z,927.65
2017-11-08T01:14:23.743Z,927.6
2017-11-08T01:14:37.216Z,927.59
2017-11-08T01:14:50.167Z,927.56
2017-11-08T01:15:03.641Z,927.58
2017-11-08T01:15:17.074Z,927.61
2017-11-08T01:15:30.027Z,927.62
2017-11-08T01:15:42.942Z,927.52
2017-11-08T01:15:56.411Z,927.57
2017-11-08T01:16:08.799Z,927.55
2017-11-08T01:16:21.664Z,927.54
2017-11-08T01:16:34.576Z,927.54
2017-11-08T01:16:47.528Z,927.54
2017-11-08T01:16:59.923Z,927.48
2017-11-08T01:17:13.448Z,927.51
2017-11-08T01:17:25.834Z,927.52
2017-11-08T01:17:38.210Z,927.54
2017-11-08T01:17:50.594Z,927.54
2017-11-08T01:18:04.455Z,927.5
2017-11-08T01:18:17.431Z,927.56
2017-11-08T01:18:30.594Z,927.5
2017-11-08T01:19:05.533Z,927.56
2017-11-08T01:19:17.918Z,927.53
2017-11-08T01:19:30.350Z,927.54
2017-11-08T01:19:41.664Z,927.58
2017-11-08T01:19:54.040Z,927.53
2017-11-08T01:20:05.798Z,927.59
2017-11-08T01:20:19.221Z,927.52
2017-11-08T01:20:32.699Z,927.54
2017-11-08T01:20:46.145Z,927.54
2017-11-08T01:20:58.546Z,927.54
2017-11-08T01:21:11.474Z,927.55
2017-11-08T01:21:24.924Z,927.49
2017-11-08T01:21:37.276Z,927.52
2017-11-08T01:21:50.157Z,927.51
2017-11-08T01:22:01.993Z,927.52
2017-11-08T01:22:14.911Z,927.52
2017-11-08T01:22:28.367Z,927.5
2017-11-08T01:22:41.300Z,927.47
2017-11-08T01:22:53.653Z,927.56
2017-11-08T01:23:06.084Z,927.5
2017-11-08T01:23:18.455Z,927.53
2017-11-08T01:23:30.832Z,927.52
2017-11-08T01:23:44.306Z,927.49
2017-11-08T01:23:56.700Z,927.52
2017-11-08T01:24:09.604Z,927.45
2017-11-08T01:24:22.517Z,927.47
2017-11-08T01:24:35.998Z,927.51
2017-11-08T01:24:49.468Z,927.44
2017-11-08T01:25:01.832Z,927.5
2017-11-08T01:25:14.817Z,927.47
2017-11-08T01:25:27.741Z,927.48
2017-11-08T01:25:41.202Z,927.49
2017-11-08T01:25:53.593Z,927.48
2017-11-08T01:26:05.983Z,927.46
2017-11-08T01:26:19.469Z,927.49
2017-11-08T01:26:31.332Z,927.46
2017-11-08T01:26:43.718Z,927.44
2017-11-08T01:26:56.635Z,927.47
2017-11-08T01:27:09.535Z,927.5
2017-11-08T01:27:21.907Z,927.44
2017-11-08T01:27:34.498Z,927.48
2017-11-08T01:27:47.968Z,927.47
2017-11-08T01:28:01.481Z,927.47
2017-11-08T01:28:14.105Z,927.55
2017-11-08T01:28:26.529Z,927.53
2017-11-08T01:28:40.012Z,927.51
2017-11-08T01:28:52.955Z,927.56
2017-11-08T01:29:05.904Z,927.49
2017-11-08T01:29:18.292Z,927.49
2017-11-08T01:29:31.200Z,927.49
2017-11-08T01:29:44.123Z,927.49
2017-11-08T01:29:57.567Z,927.5
2017-11-08T01:30:11.010Z,927.51
2017-11-08T01:30:23.940Z,927.5
2017-11-08T01:30:36.878Z,927.5
2017-11-08T01:30:50.322Z,927.45
2017-11-08T01:31:03.259Z,927.46
2017-11-08T01:31:16.203Z,927.51
2017-11-08T01:31:28.080Z,927.5
2017-11-08T01:31:41.053Z,927.48
2017-11-08T01:31:54.611Z,927.51
2017-11-08T01:32:07.553Z,927.48
2017-11-08T01:32:20.457Z,927.45
2017-11-08T01:32:33.401Z,927.49
2017-11-08T01:32:46.318Z,927.45
2017-11-08T01:32:59.844Z,927.41
2017-11-08T01:33:12.949Z,927.46
2017-11-08T01:33:25.394Z,927.41
2017-11-08T01:33:37.756Z,927.4
2017-11-08T01:33:50.113Z,927.47
2017-11-08T01:34:02.492Z,927.4
2017-11-08T01:34:15.926Z,927.44
2017-11-08T01:34:28.328Z,927.43
2017-11-08T01:34:41.271Z,927.43
2017-11-08T01:34:54.715Z,927.45
2017-11-08T01:35:07.142Z,927.45
2017-11-08T01:35:20.613Z,927.42
2017-11-08T01:35:34.070Z,927.41
2017-11-08T01:35:46.985Z,927.39
2017-11-08T01:35:58.835Z,927.39
2017-11-08T01:36:12.544Z,927.43
2017-11-08T01:36:25.493Z,927.42
2017-11-08T01:36:37.883Z,927.38
2017-11-08T01:36:50.257Z,927.39
2017-11-08T01:37:03.211Z,927.41
2017-11-08T01:37:15.633Z,927.41
2017-11-08T01:37:29.113Z,927.45
2017-11-08T01:37:41.495Z,927.38
2017-11-08T01:37:54.420Z,927.41
2017-11-08T01:38:07.295Z,927.42
2017-11-08T01:38:20.257Z,927.42
2017-11-08T01:38:33.137Z,927.4
2017-11-08T01:38:46.085Z,927.42
2017-11-08T01:38:58.964Z,927.4
2017-11-08T01:39:11.877Z,927.39
2017-11-08T01:39:24.759Z,927.38
2017-11-08T01:39:37.114Z,927.43
2017-11-08T01:39:50.600Z,927.41
2017-11-08T01:40:03.715Z,927.43
2017-11-08T01:40:16.633Z,927.38
2017-11-08T01:40:29.058Z,927.38
2017-11-08T01:40:42.002Z,927.38
2017-11-08T01:40:55.472Z,927.39
2017-11-08T01:41:07.294Z,927.35
2017-11-08T01:41:20.219Z,927.36
2017-11-08T01:41:33.151Z,927.38
2017-11-08T01:41:45.003Z,927.35
2017-11-08T01:41:58.507Z,927.37
2017-11-08T01:42:11.429Z,927.37
2017-11-08T01:42:24.350Z,927.36
2017-11-08T01:42:37.267Z,927.33
2017-11-08T01:42:49.622Z,927.35
2017-11-08T01:43:02.584Z,927.32
2017-11-08T01:43:15.637Z,927.33
2017-11-08T01:43:29.104Z,927.32
2017-11-08T01:43:41.491Z,927.32
2017-11-08T01:43:53.855Z,927.35
2017-11-08T01:44:07.362Z,927.35
2017-11-08T01:44:20.282Z,927.37
2017-11-08T01:44:32.615Z,927.34
2017-11-08T01:44:45.025Z,927.39
2017-11-08T01:44:58.508Z,927.37
2017-11-08T01:45:12.021Z,927.39
2017-11-08T01:45:25.000Z,927.34
2017-11-08T01:45:37.900Z,927.36
2017-11-08T01:45:50.830Z,927.38
2017-11-08T01:46:03.735Z,927.4
2017-11-08T01:46:17.212Z,927.36
2017-11-08T01:46:29.586Z,927.35
2017-11-08T01:46:42.518Z,927.36
2017-11-08T01:46:55.431Z,927.37
2017-11-08T01:47:08.885Z,927.33
2017-11-08T01:47:21.784Z,927.37
2017-11-08T01:47:35.296Z,927.32
2017-11-08T01:47:48.741Z,927.34
2017-11-08T01:48:01.646Z,927.35
2017-11-08T01:48:14.716Z,927.36
2017-11-08T01:48:28.173Z,927.37
2017-11-08T01:48:41.053Z,927.31
2017-11-08T01:48:53.966Z,927.33
2017-11-08T01:49:06.345Z,927.34
2017-11-08T01:49:19.300Z,927.29
2017-11-08T01:49:30.612Z,927.32
2017-11-08T01:49:43.568Z,927.32
2017-11-08T01:49:56.456Z,927.31
2017-11-08T01:50:09.965Z,927.29
2017-11-08T01:50:22.341Z,927.33
2017-11-08T01:50:35.262Z,927.29
2017-11-08T01:50:48.794Z,927.31
2017-11-08T01:51:01.744Z,927.39
2017-11-08T01:51:15.215Z,927.26
2017-11-08T01:51:28.662Z,927.3
2017-11-08T01:51:42.118Z,927.31
2017-11-08T01:51:55.125Z,927.31
2017-11-08T01:52:08.547Z,927.27
2017-11-08T01:52:21.450Z,927.28
2017-11-08T01:52:34.372Z,927.33
2017-11-08T01:52:47.291Z,927.24
2017-11-08T01:53:00.248Z,927.29
2017-11-08T01:53:12.072Z,927.27
2017-11-08T01:53:25.002Z,927.29
2017-11-08T01:53:37.871Z,927.32
2017-11-08T01:53:51.339Z,927.28
2017-11-08T01:54:04.794Z,927.27
2017-11-08T01:54:17.174Z,927.32
2017-11-08T01:54:30.695Z,927.27
2017-11-08T01:54:43.066Z,927.31
2017-11-08T01:54:56.012Z,927.36
2017-11-08T01:55:08.401Z,927.29
2017-11-08T01:55:21.281Z,927.29
2017-11-08T01:55:34.229Z,927.32
2017-11-08T01:55:47.145Z,927.3
2017-11-08T01:56:00.632Z,927.32
2017-11-08T01:56:14.100Z,927.34
2017-11-08T01:56:27.027Z,927.34
2017-11-08T01:56:40.494Z,927.37
2017-11-08T01:56:52.857Z,927.36
2017-11-08T01:57:05.211Z,927.37
2017-11-08T01:57:20.100Z,927.33
2017-11-08T01:57:33.000Z,927.33
2017-11-08T01:57:44.861Z,927.29
2017-11-08T01:57:57.798Z,927.39
2017-11-08T01:58:10.193Z,927.35
2017-11-08T01:58:23.962Z,927.33
2017-11-08T01:58:36.917Z,927.37
2017-11-08T01:58:50.396Z,927.36
2017-11-08T01:59:03.378Z,927.36
2017-11-08T01:59:15.206Z,927.32
2017-11-08T01:59:28.121Z,927.34
2017-11-08T01:59:40.498Z,927.3
2017-11-08T01:59:53.976Z,927.34
2017-11-08T02:00:07.465Z,927.33
2017-11-08T02:00:21.001Z,927.34
2017-11-08T02:00:34.460Z,927.29
2017-11-08T02:00:46.855Z,927.29
2017-11-08T02:00:59.175Z,927.33
2017-11-08T02:01:11.005Z,927.31
2017-11-08T02:01:23.917Z,927.32
2017-11-08T02:01:36.877Z,927.29
2017-11-08T02:01:49.804Z,927.3
2017-11-08T02:02:02.713Z,927.31
2017-11-08T02:02:15.688Z,927.31
2017-11-08T02:02:28.588Z,927.32
2017-11-08T02:02:41.500Z,927.34
2017-11-08T02:02:54.936Z,927.31
2017-11-08T02:03:07.294Z,927.36
2017-11-08T02:03:20.245Z,927.34
2017-11-08T02:03:33.729Z,927.33
2017-11-08T02:03:46.664Z,927.36
2017-11-08T02:04:00.097Z,927.34
2017-11-08T02:04:13.033Z,927.41
2017-11-08T02:04:26.468Z,927.37
2017-11-08T02:04:39.922Z,927.39
2017-11-08T02:04:52.820Z,927.41
2017-11-08T02:05:06.290Z,927.39
2017-11-08T02:05:19.191Z,927.38
2017-11-08T02:05:32.629Z,927.4
2017-11-08T02:05:46.078Z,927.41
2017-11-08T02:05:59.593Z,927.46
2017-11-08T02:06:12.562Z,927.41
2017-11-08T02:06:26.047Z,927.4
2017-11-08T02:06:38.991Z,927.48
2017-11-08T02:06:52.430Z,927.44
2017-11-08T02:07:05.365Z,927.42
2017-11-08T02:07:18.331Z,927.43
2017-11-08T02:07:31.825Z,927.37
2017-11-08T02:07:44.164Z,927.35
2017-11-08T02:07:57.617Z,927.38
2017-11-08T02:08:11.060Z,927.37
2017-11-08T02:08:23.955Z,927.38
2017-11-08T02:08:37.417Z,927.35
2017-11-08T02:08:50.386Z,927.46
2017-11-08T02:09:03.859Z,927.37
2017-11-08T02:09:16.786Z,927.39
2017-11-08T02:09:29.645Z,927.48
2017-11-08T02:09:42.050Z,927.36
2017-11-08T02:09:55.538Z,927.37
2017-11-08T02:10:07.914Z,927.36
2017-11-08T02:10:20.867Z,927.38
2017-11-08T02:10:34.321Z,927.36
2017-11-08T02:10:47.237Z,927.32
2017-11-08T02:11:00.775Z,927.34
2017-11-08T02:11:13.147Z,927.35
2017-11-08T02:11:24.979Z,927.35
2017-11-08T02:11:37.878Z,927.37
2017-11-08T02:11:50.307Z,927.4
2017-11-08T02:12:03.821Z,927.34
2017-11-08T02:12:16.199Z,927.32
2017-11-08T02:12:29.696Z,927.37
2017-11-08T02:12:43.167Z,927.3
2017-11-08T02:12:55.564Z,927.32
2017-11-08T02:13:08.423Z,927.37
2017-11-08T02:13:21.986Z,927.35
2017-11-08T02:13:34.320Z,927.29
2017-11-08T02:13:47.237Z,927.32
2017-11-08T02:14:00.129Z,927.38
2017-11-08T02:14:13.058Z,927.32
2017-11-08T02:14:25.936Z,927.35
2017-11-08T02:14:37.229Z,927.32
2017-11-08T02:14:50.139Z,927.34
2017-11-08T02:15:02.536Z,927.28
2017-11-08T02:15:14.937Z,927.24
2017-11-08T02:15:27.342Z,927.24
2017-11-08T02:15:40.288Z,927.26
2017-11-08T02:15:53.221Z,927.27
2017-11-08T02:16:06.124Z,927.23
2017-11-08T02:16:19.591Z,927.28
2017-11-08T02:16:31.474Z,927.24
2017-11-08T02:16:44.965Z,927.27
2017-11-08T02:16:57.847Z,927.22
2017-11-08T02:17:10.794Z,927.27
2017-11-08T02:17:24.242Z,927.27
2017-11-08T02:17:36.666Z,927.25
2017-11-08T02:17:49.618Z,927.24
2017-11-08T02:18:02.533Z,927.23
2017-11-08T02:18:16.002Z,927.28
2017-11-08T02:18:30.141Z,927.22
2017-11-08T02:18:43.057Z,927.27
2017-11-08T02:18:56.519Z,927.25
2017-11-08T02:19:09.990Z,927.24
2017-11-08T02:19:22.908Z,927.28
2017-11-08T02:19:36.370Z,927.26
2017-11-08T02:19:49.855Z,927.24
2017-11-08T02:20:02.204Z,927.3
2017-11-08T02:20:15.673Z,927.27
2017-11-08T02:20:27.580Z,927.26
2017-11-08T02:20:39.995Z,927.29
2017-11-08T02:20:53.458Z,927.25
2017-11-08T02:21:06.913Z,927.26
2017-11-08T02:21:19.874Z,927.25
2017-11-08T02:21:32.832Z,927.24
2017-11-08T02:21:45.759Z,927.24
2017-11-08T02:21:58.694Z,927.19
2017-11-08T02:22:11.660Z,927.26
2017-11-08T02:22:23.501Z,927.27
2017-11-08T02:22:36.356Z,927.27
2017-11-08T02:22:48.793Z,927.2
2017-11-08T02:23:00.080Z,927.19
2017-11-08T02:23:12.978Z,927.18
2017-11-08T02:23:26.467Z,927.22
2017-11-08T02:23:38.814Z,927.23
2017-11-08T02:23:51.265Z,927.24
2017-11-08T02:24:04.224Z,927.16
2017-11-08T02:24:17.143Z,927.15
2017-11-08T02:24:28.417Z,927.15
2017-11-08T02:24:41.350Z,927.16
2017-11-08T02:24:54.292Z,927.16
2017-11-08T02:25:06.668Z,927.11
2017-11-08T02:25:19.644Z,927.11
2017-11-08T02:25:32.542Z,927.09
2017-11-08T02:25:46.005Z,927.09
2017-11-08T02:25:59.519Z,927.1
2017-11-08T02:26:11.899Z,927.12
2017-11-08T02:26:24.803Z,927.06
2017-11-08T02:26:37.138Z,927.02
2017-11-08T02:26:49.473Z,927.04
2017-11-08T02:27:02.905Z,927.08
2017-11-08T02:27:15.758Z,927.12
2017-11-08T02:27:28.655Z,927.06
2017-11-08T02:27:41.086Z,927.04
2017-11-08T02:27:53.989Z,927.07
2017-11-08T02:28:06.869Z,927.04
2017-11-08T02:28:19.208Z,927.07
2017-11-08T02:28:31.046Z,927.03
2017-11-08T02:28:43.996Z,927.02
2017-11-08T02:28:56.946Z,927.03
2017-11-08T02:29:08.811Z,927.03
2017-11-08T02:29:21.733Z,927.04
2017-11-08T02:29:35.156Z,927.04
2017-11-08T02:29:47.523Z,927.02
2017-11-08T02:29:59.908Z,926.99
2017-11-08T02:30:13.442Z,927.01
2017-11-08T02:30:26.356Z,927.01
2017-11-08T02:30:39.269Z,926.97
2017-11-08T02:30:51.673Z,927.04
2017-11-08T02:31:04.007Z,927.01
2017-11-08T02:31:17.446Z,927.06
2017-11-08T02:31:30.408Z,926.98
2017-11-08T02:31:43.332Z,926.96
2017-11-08T02:31:56.736Z,926.98
2017-11-08T02:32:10.200Z,926.98
2017-11-08T02:32:23.132Z,926.91
2017-11-08T02:32:36.074Z,926.95
2017-11-08T02:32:47.917Z,926.92
2017-11-08T02:33:00.279Z,926.96
2017-11-08T02:33:13.803Z,926.95
2017-11-08T02:33:28.161Z,926.97
2017-11-08T02:33:40.548Z,926.99
2017-11-08T02:33:52.895Z,927
2017-11-08T02:34:05.841Z,926.98
2017-11-08T02:34:18.766Z,926.94
2017-11-08T02:34:30.586Z,926.99
2017-11-08T02:34:44.073Z,926.94
2017-11-08T02:34:56.455Z,926.97
2017-11-08T02:35:09.927Z,926.93
2017-11-08T02:35:23.380Z,926.94
2017-11-08T02:35:35.794Z,926.99
2017-11-08T02:35:48.199Z,926.97
2017-11-08T02:36:00.621Z,926.96
2017-11-08T02:36:13.559Z,926.93
2017-11-08T02:36:25.955Z,926.95
2017-11-08T02:36:37.783Z,926.92
2017-11-08T02:36:50.669Z,926.94
2017-11-08T02:37:04.142Z,926.99
2017-11-08T02:37:16.503Z,927
2017-11-08T02:37:29.411Z,926.95
2017-11-08T02:37:42.331Z,926.96
2017-11-08T02:37:54.717Z,926.94
2017-11-08T02:38:08.445Z,927
2017-11-08T02:38:21.401Z,926.94
2017-11-08T02:38:34.313Z,926.96
2017-11-08T02:38:47.239Z,926.94
2017-11-08T02:39:00.170Z,926.97
2017-11-08T02:39:13.586Z,927.01
2017-11-08T02:39:27.022Z,926.98
2017-11-08T02:39:39.951Z,926.97
2017-11-08T02:39:53.418Z,926.96
2017-11-08T02:40:06.358Z,927
2017-11-08T02:40:19.846Z,926.94
2017-11-08T02:40:32.773Z,926.97
2017-11-08T02:40:45.115Z,926.94
2017-11-08T02:40:58.623Z,927.02
2017-11-08T02:41:10.144Z,926.96
2017-11-08T02:41:23.062Z,926.93
2017-11-08T02:41:35.502Z,926.93
2017-11-08T02:41:48.452Z,926.9
2017-11-08T02:41:59.798Z,926.94